ATL weather

Hartsfield Jackson Atlanta International Airport
Atlanta, Georgia, United States

Public forecast

Using degrees Fahrenheit for public forecast. Weather courtesy of forecast.io.

METAR (pilot weather report)

Retrieved 2017/06/28 21:52 UTC (9 minutes ago):

KATL 282152Z 15008KT 10SM SCT060 SCT080 29/17 A3010 RMK AO2 SLP185 MDT CU OHD-SW T02940167

TAF (pilot weather forecast)

Retrieved 2017/06/28 18:39 UTC (3 hours ago):

TAF KATL 281736Z 2818/2924 14009G16KT P6SM SCT050 SCT250 FM282200 12007KT P6SM FEW060 SCT250 FM290900 10005KT P6SM SCT025 BKN100 FM291200 12007KT P6SM VCSH BKN010 FM291700 15008KT 6SM -SHRA BKN020 PROB30 2918/2924 5SM TSRA BKN015CB